5M0 weather

Hartselle-Morgan County Regional Airport
Hartselle, Alabama, United States

Public forecast

Using degrees Fahrenheit for public forecast. Weather courtesy of forecast.io.

Closest aviation weather report (METAR) to Hartselle-Morgan County Regional Airport

Closest report is Cullman Regional Airport-Folsom Field, 9.2 nm (17.0 km) SSE. Retrieved 2020/02/19 06:35 UTC (3 minutes ago):

KCMD 190635Z AUTO 35009KT 7SM RA OVC007 08/07 A3020 RMK AO2 P0001 T00750067

Closest aviation forecast (TAF) to Hartselle-Morgan County Regional Airport

Closest forecast is Huntsville International Carl T Jones Field, 15.8 nm (29.3 km) NNE. Retrieved 2020/02/19 06:22 UTC (16 minutes ago):

TAF KHSV 190520Z 1906/2006 01010KT P6SM VCSH BKN030 OVC050 FM191800 03012G20KT P6SM BKN100 FM200000 04010KT P6SM BKN120